Time;durP1;ratioP1;P1;durP2;ratioP2;P2;SDS_P1;SDS_P2;PMS_P1;PMS_P2;Temp;Humidity;BMP_temperature;BMP_pressure;BME280_temperature;BME280_humidity;BME280_pressure;Samples;Min_cycle;Max_cycle;Signal;HPM_P1;HPM_P2
2022/04/17 00:02:02;;;;;;;6.32;3.08;;;12.90;1.00;;;;;;5057220;28;20029;-90
2022/04/17 00:04:28;;;;;;;4.03;2.40;;;12.70;1.00;;;;;;5055562;28;20033;-90
2022/04/17 00:06:54;;;;;;;2.88;2.38;;;12.80;1.00;;;;;;5055545;28;20063;-90
2022/04/17 00:09:19;;;;;;;3.72;2.50;;;12.90;1.00;;;;;;5054352;28;20024;-90
2022/04/17 00:11:45;;;;;;;2.97;2.67;;;13.00;1.00;;;;;;5052374;28;20994;-90
2022/04/17 00:14:11;;;;;;;4.00;2.50;;;12.70;1.00;;;;;;5057120;28;20048;-90
2022/04/17 00:16:40;;;;;;;4.65;2.58;;;12.50;1.00;;;;;;5055709;28;20032;-90
2022/04/17 00:19:06;;;;;;;3.67;2.67;;;12.60;1.00;;;;;;5055094;28;20079;-90
2022/04/17 00:21:32;;;;;;;5.32;2.60;;;12.70;1.00;;;;;;5055296;28;20021;-90
2022/04/17 00:23:58;;;;;;;3.22;2.45;;;12.60;1.00;;;;;;5050437;28;20037;-90
2022/04/17 00:26:24;;;;;;;3.20;2.35;;;12.40;1.00;;;;;;5057270;28;20033;-90
2022/04/17 00:28:49;;;;;;;3.35;2.72;;;12.40;1.00;;;;;;5055529;28;20477;-90
2022/04/17 00:31:15;;;;;;;4.05;2.63;;;12.50;1.00;;;;;;5054715;28;20036;-90
2022/04/17 00:33:40;;;;;;;3.10;2.80;;;12.20;1.00;;;;;;5053819;28;20039;-90
2022/04/17 00:36:06;;;;;;;3.65;2.50;;;12.20;1.00;;;;;;5050500;28;20030;-90
2022/04/17 00:38:32;;;;;;;3.47;2.50;;;12.40;1.00;;;;;;5054935;28;20024;-90
2022/04/17 00:40:57;;;;;;;3.45;2.55;;;12.50;1.00;;;;;;5055775;28;20116;-90
2022/04/17 00:43:30;;;;;;;2.80;2.50;;;12.40;1.00;;;;;;5054551;28;20052;-90
2022/04/17 00:46:00;;;;;;;3.33;2.70;;;12.50;1.00;;;;;;5054836;28;20033;-90
2022/04/17 00:48:26;;;;;;;5.13;2.60;;;12.00;1.00;;;;;;5055026;28;20044;-90
2022/04/17 00:50:55;;;;;;;5.88;2.67;;;12.10;1.00;;;;;;5049363;28;20028;-90
2022/04/17 00:53:22;;;;;;;2.70;2.50;;;11.90;1.00;;;;;;5056208;28;20029;-90
2022/04/17 00:55:49;;;;;;;2.75;2.50;;;11.80;1.00;;;;;;5054599;28;20140;-90
2022/04/17 00:58:15;;;;;;;4.00;2.42;;;12.10;1.00;;;;;;5054864;28;20035;-90
2022/04/17 01:00:41;;;;;;;3.10;2.80;;;12.00;1.00;;;;;;5054538;28;20033;-90
2022/04/17 01:03:10;;;;;;;2.90;2.60;;;11.70;1.00;;;;;;5051829;28;20401;-90
2022/04/17 01:05:38;;;;;;;3.10;2.65;;;11.70;1.00;;;;;;5053233;28;20021;-90
2022/04/17 01:08:04;;;;;;;3.05;2.47;;;11.70;1.00;;;;;;5055566;28;20032;-89
2022/04/17 01:10:31;;;;;;;3.80;2.63;;;12.00;1.00;;;;;;5054667;28;20033;-90
2022/04/17 01:12:58;;;;;;;2.92;2.63;;;11.90;1.00;;;;;;5051609;28;20412;-90
2022/04/17 01:15:24;;;;;;;4.22;2.80;;;11.70;1.00;;;;;;5052400;28;20037;-90
2022/04/17 01:17:49;;;;;;;3.42;2.90;;;11.80;1.00;;;;;;5050358;28;20113;-90
2022/04/17 01:20:16;;;;;;;2.83;2.63;;;11.60;1.00;;;;;;5056083;28;20025;-90
2022/04/17 01:22:47;;;;;;;2.85;2.55;;;11.60;1.00;;;;;;5054373;28;20052;-90
2022/04/17 01:27:57;;;;;;;3.75;2.85;;;11.30;1.00;;;;;;5054354;28;20044;-90
2022/04/17 01:30:22;;;;;;;5.30;2.85;;;11.60;1.00;;;;;;5053560;28;20021;-90
2022/04/17 01:32:48;;;;;;;3.38;2.65;;;11.80;1.00;;;;;;5050469;28;20052;-90
2022/04/17 01:35:13;;;;;;;3.00;2.60;;;11.80;1.00;;;;;;5055783;28;20041;-90
2022/04/17 01:37:39;;;;;;;3.40;2.70;;;11.40;1.00;;;;;;5053297;28;20115;-90
2022/04/17 01:40:05;;;;;;;3.95;2.88;;;11.70;1.00;;;;;;5053919;28;20024;-90
2022/04/17 01:42:31;;;;;;;3.22;2.50;;;11.50;1.00;;;;;;5053858;28;20441;-90
2022/04/17 01:44:57;;;;;;;4.45;2.60;;;11.70;1.00;;;;;;5049472;28;20064;-90
2022/04/17 01:47:23;;;;;;;3.05;2.75;;;11.50;1.00;;;;;;5055800;28;20025;-90
2022/04/17 01:49:49;;;;;;;3.22;2.75;;;11.60;1.00;;;;;;5054218;28;20036;-90
2022/04/17 01:52:14;;;;;;;4.72;2.85;;;11.60;1.00;;;;;;5052339;28;20033;-90
2022/04/17 01:54:40;;;;;;;3.05;2.75;;;11.50;1.00;;;;;;5052632;28;20044;-90
2022/04/17 01:57:05;;;;;;;3.97;2.90;;;11.50;1.00;;;;;;5050612;28;20100;-90
2022/04/17 01:59:31;;;;;;;3.38;2.40;;;11.50;1.00;;;;;;5053762;28;20017;-90
2022/04/17 02:01:57;;;;;;;3.00;2.40;;;11.70;1.00;;;;;;5054299;28;20021;-90
2022/04/17 02:04:26;;;;;;;3.20;2.60;;;11.40;1.00;;;;;;5053503;28;20097;-90
2022/04/17 02:06:52;;;;;;;3.30;2.70;;;11.20;1.00;;;;;;5053666;28;20611;-90
2022/04/17 02:09:18;;;;;;;3.75;2.92;;;11.30;1.00;;;;;;5052270;28;20123;-90
2022/04/17 02:11:45;;;;;;;3.15;2.85;;;11.30;1.00;;;;;;5050399;28;20409;-90
2022/04/17 02:14:11;;;;;;;3.25;2.78;;;11.60;1.00;;;;;;5055368;28;20033;-90
2022/04/17 02:16:37;;;;;;;3.08;2.63;;;11.40;1.00;;;;;;5053518;28;20224;-90
2022/04/17 02:19:03;;;;;;;2.65;2.30;;;11.20;1.00;;;;;;5053326;28;20029;-89
2022/04/17 02:21:29;;;;;;;2.85;2.60;;;11.10;1.00;;;;;;5053995;28;20036;-90
2022/04/17 02:23:55;;;;;;;5.97;3.03;;;11.50;1.00;;;;;;5049404;28;20036;-90
2022/04/17 02:26:21;;;;;;;3.05;2.60;;;11.40;1.00;;;;;;5055354;28;20029;-90
2022/04/17 02:28:47;;;;;;;4.95;2.67;;;11.60;1.00;;;;;;5053425;28;20063;-90
2022/04/17 02:31:15;;;;;;;3.05;2.75;;;11.50;1.00;;;;;;5052212;28;20033;-89
2022/04/17 02:33:41;;;;;;;3.80;2.92;;;11.40;1.00;;;;;;5051811;28;20408;-89
2022/04/17 02:36:07;;;;;;;3.00;2.75;;;11.00;1.00;;;;;;5050531;28;20025;-90
2022/04/17 02:38:33;;;;;;;4.25;3.05;;;11.20;1.00;;;;;;5052575;28;20055;-90
2022/04/17 02:40:58;;;;;;;4.68;2.80;;;11.30;1.00;;;;;;5054785;28;20480;-90
2022/04/17 02:43:24;;;;;;;3.20;2.90;;;11.00;1.00;;;;;;5053034;28;20025;-90
2022/04/17 02:45:51;;;;;;;4.25;2.72;;;11.00;1.00;;;;;;5053527;28;20489;-90
2022/04/17 02:48:16;;;;;;;4.47;2.97;;;11.00;1.00;;;;;;5053475;28;20043;-90
2022/04/17 02:50:42;;;;;;;2.90;2.63;;;11.20;1.00;;;;;;5054067;28;20025;-90
2022/04/17 02:53:08;;;;;;;5.68;2.70;;;11.20;1.00;;;;;;5059048;28;20033;-91
2022/04/17 02:55:34;;;;;;;3.42;2.70;;;10.80;1.00;;;;;;5057133;28;20033;-90
2022/04/17 02:58:00;;;;;;;3.85;2.70;;;10.70;1.00;;;;;;5057135;28;20103;-91
2022/04/17 03:00:26;;;;;;;3.55;3.05;;;10.30;1.00;;;;;;5056630;28;20085;-90
2022/04/17 03:05:37;;;;;;;3.42;3.13;;;10.60;1.00;;;;;;5067235;28;20443;-91
2022/04/17 03:08:08;;;;;;;4.32;2.90;;;10.30;1.00;;;;;;5057375;28;20025;-90
2022/04/17 03:10:34;;;;;;;3.22;2.92;;;10.30;1.00;;;;;;5055415;28;20063;-90
2022/04/17 03:13:00;;;;;;;3.05;2.75;;;10.50;1.00;;;;;;5055305;28;20113;-90
2022/04/17 03:15:26;;;;;;;5.47;2.90;;;10.60;1.00;;;;;;5056516;28;20119;-91
2022/04/17 03:17:51;;;;;;;3.05;2.70;;;10.30;1.00;;;;;;5052105;28;20091;-90
2022/04/17 03:20:17;;;;;;;4.53;3.40;;;10.00;1.00;;;;;;5058826;28;20032;-90
2022/04/17 03:22:43;;;;;;;3.60;2.85;;;10.10;1.00;;;;;;5056427;28;20033;-90
2022/04/17 03:25:09;;;;;;;3.72;3.28;;;10.00;1.00;;;;;;5056249;28;20028;-90
2022/04/17 03:27:35;;;;;;;4.70;2.78;;;10.00;1.00;;;;;;5056157;28;20021;-90
2022/04/17 03:30:02;;;;;;;3.45;2.60;;;10.00;1.00;;;;;;5053134;28;20060;-90
2022/04/17 03:32:28;;;;;;;2.95;2.65;;;10.20;1.00;;;;;;5056260;28;20049;-91
2022/04/17 03:34:54;;;;;;;3.00;2.70;;;10.20;1.00;;;;;;5056819;28;20523;-90
2022/04/17 03:37:19;;;;;;;3.50;2.75;;;10.40;1.00;;;;;;5056366;28;20535;-90
2022/04/17 03:39:46;;;;;;;3.20;2.90;;;10.40;1.00;;;;;;5056134;28;20051;-90
2022/04/17 03:42:12;;;;;;;3.47;3.15;;;10.10;1.00;;;;;;5053739;28;20025;-90
2022/04/17 03:44:38;;;;;;;3.30;2.97;;;10.00;1.00;;;;;;5054033;28;20033;-90
2022/04/17 03:47:06;;;;;;;4.35;2.80;;;10.00;1.00;;;;;;5057275;28;20087;-90
2022/04/17 03:49:32;;;;;;;3.25;2.95;;;9.80;1.00;;;;;;5054814;28;20025;-90
2022/04/17 03:52:00;;;;;;;3.05;2.75;;;9.90;1.00;;;;;;5054300;28;20052;-91
2022/04/17 03:54:26;;;;;;;4.32;3.22;;;10.10;1.00;;;;;;5055851;28;20033;-90
2022/04/17 03:56:52;;;;;;;3.78;3.17;;;10.00;1.00;;;;;;5051463;28;20113;-90
2022/04/17 03:59:18;;;;;;;4.15;3.35;;;9.80;1.00;;;;;;5057220;28;20111;-90
2022/04/17 04:01:46;;;;;;;4.05;3.17;;;9.80;1.00;;;;;;5055121;28;20028;-90
2022/04/17 04:04:12;;;;;;;3.53;3.10;;;9.90;1.00;;;;;;5056330;28;20032;-90
2022/04/17 04:06:37;;;;;;;3.40;3.10;;;9.90;1.00;;;;;;5055603;28;20033;-91
2022/04/17 04:09:03;;;;;;;5.90;3.13;;;9.50;1.00;;;;;;5052157;28;20032;-90
2022/04/17 04:11:28;;;;;;;4.50;3.03;;;9.70;1.00;;;;;;5056166;28;20086;-90
2022/04/17 04:13:54;;;;;;;3.97;2.90;;;9.90;1.00;;;;;;5055719;28;20044;-90
2022/04/17 04:16:20;;;;;;;4.30;3.20;;;9.80;1.00;;;;;;5055314;28;20048;-90
2022/04/17 04:18:45;;;;;;;3.63;3.08;;;9.60;1.00;;;;;;5055377;28;20028;-90
2022/04/17 04:21:11;;;;;;;3.83;3.13;;;9.60;1.00;;;;;;5052074;28;20021;-90
2022/04/17 04:23:38;;;;;;;4.15;3.35;;;9.60;1.00;;;;;;5054451;28;20033;-91
2022/04/17 04:26:04;;;;;;;3.92;3.22;;;9.80;1.00;;;;;;5056874;28;20048;-90
2022/04/17 04:28:36;;;;;;;3.25;2.90;;;9.30;1.00;;;;;;5053765;28;20036;-90
2022/04/17 04:31:04;;;;;;;3.75;3.35;;;9.20;1.00;;;;;;5053618;28;20039;-90
2022/04/17 04:33:31;;;;;;;4.07;3.10;;;9.40;1.00;;;;;;5055113;28;20033;-90
2022/04/17 04:36:01;;;;;;;4.15;3.00;;;9.60;1.00;;;;;;5051151;28;20037;-90
2022/04/17 04:38:27;;;;;;;3.50;3.20;;;9.40;1.00;;;;;;5055962;28;20021;-90
2022/04/17 04:40:53;;;;;;;4.35;3.50;;;9.40;1.00;;;;;;5054439;28;20025;-90
2022/04/17 04:43:18;;;;;;;3.78;3.47;;;9.70;1.00;;;;;;5053671;28;20116;-90
2022/04/17 04:51:13;;;;;;;3.40;3.10;;;9.30;1.00;;;;;;5052675;28;20051;-90
2022/04/17 04:53:39;;;;;;;3.38;3.03;;;9.20;1.00;;;;;;5052826;28;20541;-90
2022/04/17 04:56:05;;;;;;;4.88;3.08;;;9.30;1.00;;;;;;5054842;28;20032;-89
2022/04/17 04:58:31;;;;;;;4.20;3.30;;;9.30;1.00;;;;;;5054498;28;20408;-90
2022/04/17 05:00:57;;;;;;;4.03;3.63;;;8.90;1.00;;;;;;5054413;28;20075;-94
2022/04/17 05:03:23;;;;;;;3.83;3.42;;;9.30;1.00;;;;;;5054889;28;20064;-92
2022/04/17 05:05:48;;;;;;;4.22;3.42;;;9.10;1.00;;;;;;5051642;28;20033;-96
2022/04/17 05:08:14;;;;;;;3.70;3.40;;;9.20;1.00;;;;;;5055627;28;20025;-94
2022/04/17 05:10:39;;;;;;;4.53;3.70;;;9.20;1.00;;;;;;5051040;28;20032;-94
2022/04/17 05:13:05;;;;;;;4.10;3.40;;;9.70;1.00;;;;;;5058290;28;20028;-96
2022/04/17 05:15:31;;;;;;;3.67;3.38;;;9.70;1.00;;;;;;5064322;28;20040;-89
2022/04/17 05:17:57;;;;;;;3.67;3.15;;;9.10;1.00;;;;;;5049057;28;20017;-90
2022/04/17 05:20:22;;;;;;;6.03;3.63;;;9.30;1.00;;;;;;5056845;28;20107;-89
2022/04/17 05:22:56;;;;;;;3.78;3.35;;;9.10;1.00;;;;;;5054057;28;20048;-89
2022/04/17 05:25:22;;;;;;;5.30;3.92;;;9.80;1.00;;;;;;5054167;28;20037;-89
2022/04/17 05:27:47;;;;;;;4.60;3.63;;;9.50;1.00;;;;;;5053945;28;20028;-89
2022/04/17 05:30:13;;;;;;;4.75;4.07;;;9.60;1.00;;;;;;5052039;28;20025;-88
2022/04/17 05:32:38;;;;;;;5.03;3.90;;;9.20;1.00;;;;;;5052057;28;20124;-90
2022/04/17 05:35:05;;;;;;;3.80;3.40;;;9.60;1.00;;;;;;5055618;28;20452;-89
2022/04/17 05:37:30;;;;;;;3.90;3.38;;;9.50;1.00;;;;;;5054256;28;20032;-90
2022/04/17 05:39:56;;;;;;;4.40;4.00;;;9.60;1.00;;;;;;5053765;28;20037;-89
2022/04/17 05:42:21;;;;;;;4.25;3.85;;;9.40;1.00;;;;;;5052978;28;20093;-90
2022/04/17 05:44:48;;;;;;;3.95;3.22;;;9.20;1.00;;;;;;5050092;28;20039;-89
2022/04/17 05:47:14;;;;;;;6.55;4.10;;;9.10;1.00;;;;;;5054741;28;20068;-90
2022/04/17 05:49:40;;;;;;;3.63;3.25;;;9.20;1.00;;;;;;5052323;28;20562;-90
2022/04/17 05:52:06;;;;;;;3.80;3.50;;;9.60;1.00;;;;;;5054556;28;20021;-90
2022/04/17 05:54:32;;;;;;;4.32;3.88;;;9.30;1.00;;;;;;5053003;28;20081;-88
2022/04/17 05:56:57;;;;;;;7.03;3.70;;;9.60;1.00;;;;;;5049961;28;20367;-88
2022/04/17 05:59:23;;;;;;;6.07;4.03;;;9.40;1.00;;;;;;5056167;28;20116;-90
2022/04/17 06:01:48;;;;;;;5.18;4.13;;;9.50;1.00;;;;;;5052860;28;20028;-90
2022/04/17 06:04:14;;;;;;;6.20;3.97;;;9.30;1.00;;;;;;5053996;28;20039;-90
2022/04/17 06:06:40;;;;;;;4.30;3.65;;;9.60;1.00;;;;;;5053950;28;20107;-90
2022/04/17 06:09:05;;;;;;;4.85;4.30;;;9.50;1.00;;;;;;5050114;28;20465;-90
2022/04/17 06:11:31;;;;;;;5.65;4.00;;;9.80;1.00;;;;;;5053888;28;20025;-88
2022/04/17 06:13:57;;;;;;;5.38;4.47;;;9.70;1.00;;;;;;5054411;28;20120;-90
2022/04/17 06:16:22;;;;;;;6.18;3.80;;;9.60;1.00;;;;;;5054026;28;20104;-90
2022/04/17 06:18:48;;;;;;;4.20;3.80;;;9.60;1.00;;;;;;5053951;28;20074;-90
2022/04/17 06:21:13;;;;;;;5.65;4.30;;;9.60;1.00;;;;;;5052288;28;20036;-90
2022/04/17 06:23:39;;;;;;;4.18;3.60;;;9.80;1.00;;;;;;5054158;28;20029;-90
2022/04/17 06:26:06;;;;;;;4.88;3.78;;;9.80;1.00;;;;;;5057070;28;20028;-90
2022/04/17 06:28:32;;;;;;;5.53;3.80;;;9.90;1.00;;;;;;5056609;28;20021;-90
2022/04/17 06:30:58;;;;;;;5.50;3.65;;;9.90;1.00;;;;;;5057717;28;20044;-90
2022/04/17 06:33:23;;;;;;;4.72;4.10;;;10.00;1.00;;;;;;5056670;28;20039;-90
2022/04/17 06:35:49;;;;;;;5.07;3.97;;;10.10;1.00;;;;;;5054311;28;20032;-90
2022/04/17 06:38:15;;;;;;;4.28;3.83;;;10.20;1.00;;;;;;5059761;28;20029;-90
2022/04/17 06:40:41;;;;;;;4.95;3.85;;;10.30;1.00;;;;;;5057324;28;20037;-89
2022/04/17 06:43:08;;;;;;;5.05;4.15;;;10.30;1.00;;;;;;5057595;28;20393;-90
2022/04/17 06:45:36;;;;;;;5.40;4.35;;;10.30;1.00;;;;;;5057573;28;20021;-90
2022/04/17 06:48:19;;;;;;;5.05;4.13;;;10.50;1.00;;;;;;5053853;28;20028;-90
2022/04/17 06:50:46;;;;;;;6.15;4.47;;;10.40;1.00;;;;;;5054363;28;20040;-91
2022/04/17 06:53:12;;;;;;;4.40;4.00;;;10.60;1.00;;;;;;5059658;28;20017;-90
2022/04/17 06:55:41;;;;;;;6.50;3.90;;;10.90;1.00;;;;;;5056875;28;20049;-89
2022/04/17 06:58:09;;;;;;;4.45;4.05;;;11.10;1.00;;;;;;5057331;28;20112;-90
2022/04/17 07:00:36;;;;;;;6.30;3.78;;;11.00;1.00;;;;;;5057698;28;20044;-90
2022/04/17 07:03:02;;;;;;;5.95;3.88;;;10.90;1.00;;;;;;5052321;28;20025;-89
2022/04/17 07:05:28;;;;;;;4.20;3.80;;;11.10;1.00;;;;;;5057886;28;20074;-90
2022/04/17 07:07:59;;;;;;;4.95;3.90;;;11.00;1.00;;;;;;5055993;28;20394;-89
2022/04/17 07:10:25;;;;;;;4.10;3.80;;;11.40;1.00;;;;;;5056740;28;20539;-90
2022/04/17 07:12:52;;;;;;;5.40;4.15;;;11.30;1.00;;;;;;5057089;28;20036;-89
2022/04/17 07:15:19;;;;;;;5.03;3.97;;;11.20;1.00;;;;;;5055410;28;20119;-90
2022/04/17 07:17:46;;;;;;;4.30;3.90;;;11.30;1.00;;;;;;5052605;28;20454;-90
2022/04/17 07:20:12;;;;;;;4.70;4.30;;;11.30;1.00;;;;;;5059337;28;20470;-90
2022/04/17 07:22:39;;;;;;;4.00;3.53;;;11.20;1.00;;;;;;5057123;28;20021;-90
2022/04/17 07:25:06;;;;;;;4.20;3.80;;;11.30;1.00;;;;;;5056378;28;20055;-89
2022/04/17 07:27:41;;;;;;;4.93;4.43;;;11.20;1.00;;;;;;5056647;28;20103;-89
2022/04/17 07:30:13;;;;;;;4.10;3.70;;;11.40;1.00;;;;;;5053819;28;20040;-89
2022/04/17 07:32:41;;;;;;;4.47;4.07;;;11.50;1.00;;;;;;5054586;28;20493;-89
2022/04/17 07:35:08;;;;;;;4.72;4.13;;;11.60;1.00;;;;;;5055520;28;20037;-89
2022/04/17 07:37:35;;;;;;;4.65;4.10;;;11.70;1.00;;;;;;5056532;28;20446;-89
2022/04/17 07:40:02;;;;;;;4.45;4.05;;;11.70;1.00;;;;;;5056138;28;20055;-89
2022/04/17 07:42:28;;;;;;;5.18;4.68;;;11.70;1.00;;;;;;5054888;28;20048;-89
2022/04/17 07:44:53;;;;;;;5.03;4.53;;;11.90;1.00;;;;;;5051555;28;20445;-90
2022/04/17 07:47:19;;;;;;;5.13;4.43;;;11.90;1.00;;;;;;5057956;28;20044;-89
2022/04/17 07:49:45;;;;;;;4.65;4.25;;;11.90;1.00;;;;;;5056745;28;20022;-89
2022/04/17 07:52:11;;;;;;;4.95;4.45;;;11.90;1.00;;;;;;5056519;28;20021;-89
2022/04/17 07:54:36;;;;;;;5.47;4.63;;;12.00;1.00;;;;;;5056092;28;20115;-89
2022/04/17 07:57:03;;;;;;;4.78;4.38;;;12.10;1.00;;;;;;5052885;28;20556;-89
2022/04/17 07:59:29;;;;;;;6.10;4.80;;;12.20;1.00;;;;;;5056830;28;20029;-90
2022/04/17 08:02:01;;;;;;;5.03;4.53;;;12.20;1.00;;;;;;5054999;28;20094;-89
2022/04/17 08:04:27;;;;;;;4.95;4.30;;;12.30;1.00;;;;;;5056075;28;20029;-89
2022/04/17 08:06:54;;;;;;;6.60;4.50;;;12.40;1.00;;;;;;5055980;28;20029;-89
2022/04/17 08:09:19;;;;;;;4.82;4.35;;;12.30;1.00;;;;;;5054310;28;20020;-89
2022/04/17 08:11:51;;;;;;;5.00;4.40;;;12.40;1.00;;;;;;5052815;28;20516;-89
2022/04/17 08:14:18;;;;;;;5.13;4.63;;;12.40;1.00;;;;;;5058132;28;20464;-89
2022/04/17 08:16:43;;;;;;;4.88;4.22;;;12.40;1.00;;;;;;5055801;28;20029;-89
2022/04/17 08:19:09;;;;;;;5.07;4.60;;;12.30;1.00;;;;;;5055731;28;20082;-89
2022/04/17 08:21:35;;;;;;;5.10;4.60;;;12.40;1.00;;;;;;5054262;28;20028;-90
2022/04/17 08:24:02;;;;;;;4.93;4.43;;;12.50;1.00;;;;;;5050485;28;20037;-89
2022/04/17 08:26:27;;;;;;;4.95;4.45;;;12.60;1.00;;;;;;5056498;28;20052;-90
2022/04/17 08:28:53;;;;;;;5.22;4.68;;;12.60;1.00;;;;;;5055982;28;20072;-90
2022/04/17 08:31:18;;;;;;;5.10;4.60;;;12.60;1.00;;;;;;5055685;28;20537;-89
2022/04/17 08:33:44;;;;;;;5.60;5.00;;;12.50;1.00;;;;;;5055376;28;20044;-89
2022/04/17 08:36:10;;;;;;;5.30;4.80;;;12.60;1.00;;;;;;5053004;28;20061;-89
2022/04/17 08:38:35;;;;;;;5.38;4.90;;;12.70;1.00;;;;;;5054490;28;20090;-90
2022/04/17 08:41:05;;;;;;;5.00;4.30;;;12.70;1.00;;;;;;5056678;28;20074;-90
2022/04/17 08:43:31;;;;;;;4.60;4.20;;;12.80;1.00;;;;;;5055351;28;20400;-89
2022/04/17 08:45:57;;;;;;;6.38;4.45;;;12.80;1.00;;;;;;5054931;28;20067;-89
2022/04/17 08:48:23;;;;;;;4.97;4.45;;;12.90;1.00;;;;;;5054454;28;20048;-90
2022/04/17 08:50:52;;;;;;;5.18;4.68;;;12.80;1.00;;;;;;5051420;28;20033;-90
2022/04/17 08:53:18;;;;;;;5.28;4.78;;;13.10;1.00;;;;;;5057063;28;20082;-90
2022/04/17 08:55:44;;;;;;;5.50;5.00;;;13.30;1.00;;;;;;5055282;28;20032;-90
2022/04/17 08:58:11;;;;;;;5.40;4.90;;;13.30;1.00;;;;;;5055000;28;20074;-90
2022/04/17 09:00:37;;;;;;;5.20;4.70;;;13.30;1.00;;;;;;5053523;28;20028;-90
2022/04/17 09:03:06;;;;;;;5.35;4.85;;;13.30;1.00;;;;;;5050031;28;20029;-90
2022/04/17 09:05:33;;;;;;;5.63;5.07;;;13.40;1.00;;;;;;5054942;28;20036;-90
2022/04/17 09:08:18;;;;;;;5.20;4.47;;;13.40;1.00;;;;;;5055576;28;20045;-90
2022/04/17 09:10:57;;;;;;;5.00;4.50;;;13.70;1.00;;;;;;5054817;28;20044;-90
2022/04/17 09:13:33;;;;;;;5.03;4.53;;;13.40;1.00;;;;;;5054750;28;20098;-90
2022/04/17 09:16:04;;;;;;;5.38;4.88;;;13.50;1.00;;;;;;5053276;28;20560;-90
2022/04/17 09:18:31;;;;;;;5.05;4.63;;;13.60;1.00;;;;;;5054632;28;20059;-90
2022/04/17 09:21:01;;;;;;;4.68;4.25;;;13.60;1.00;;;;;;5050559;28;20044;-90
2022/04/17 09:23:35;;;;;;;5.65;5.05;;;13.80;1.00;;;;;;5064512;28;20557;-90
2022/04/17 09:26:01;;;;;;;5.30;4.80;;;13.90;1.00;;;;;;5055792;28;20021;-90
2022/04/17 09:28:37;;;;;;;5.57;5.07;;;13.70;1.00;;;;;;5054496;28;20033;-90
2022/04/17 09:31:11;;;;;;;4.88;4.47;;;13.80;1.00;;;;;;5054001;28;20029;-89
2022/04/17 09:33:38;;;;;;;5.80;5.20;;;13.90;1.00;;;;;;5054420;28;20043;-90
2022/04/17 09:36:04;;;;;;;4.95;4.50;;;14.00;1.00;;;;;;5051098;28;20035;-90
2022/04/17 09:38:32;;;;;;;5.50;5.00;;;14.10;1.00;;;;;;5054966;28;20448;-89
2022/04/17 09:41:15;;;;;;;5.38;4.88;;;14.30;1.00;;;;;;5053810;28;20032;-90
2022/04/17 09:43:42;;;;;;;5.18;4.68;;;14.20;1.00;;;;;;5053036;28;20523;-90
2022/04/17 09:46:09;;;;;;;4.97;4.47;;;14.20;1.00;;;;;;5054247;28;20044;-90
2022/04/17 09:48:46;;;;;;;5.00;4.50;;;14.30;1.00;;;;;;5054445;28;20095;-90
2022/04/17 09:51:27;;;;;;;4.90;4.47;;;14.60;1.00;;;;;;5051777;28;20032;-89
2022/04/17 09:54:05;;;;;;;4.95;4.55;;;14.50;1.00;;;;;;5050194;28;20068;-90
2022/04/17 09:56:45;;;;;;;136.38;75.57;;;14.50;1.00;;;;;;5063778;28;20037;-90
2022/04/17 09:59:18;;;;;;;8.88;7.43;;;14.70;1.00;;;;;;5055935;28;20029;-90
2022/04/17 10:01:49;;;;;;;5.00;4.50;;;14.90;1.00;;;;;;5054010;28;20082;-90
2022/04/17 10:04:19;;;;;;;5.10;4.60;;;14.80;1.00;;;;;;5053786;28;20459;-90
2022/04/17 10:06:50;;;;;;;5.30;4.35;;;14.60;1.00;;;;;;5054048;28;20056;-90
2022/04/17 10:09:16;;;;;;;4.82;4.43;;;14.80;1.00;;;;;;5052593;28;20078;-90
2022/04/17 10:11:42;;;;;;;3.72;3.42;;;15.20;1.00;;;;;;5051235;28;20096;-91
2022/04/17 10:14:08;;;;;;;4.10;3.65;;;15.20;1.00;;;;;;5056039;28;20052;-90
2022/04/17 10:16:34;;;;;;;4.80;4.00;;;15.30;1.00;;;;;;5054167;28;20045;-90
2022/04/17 10:19:05;;;;;;;4.78;4.28;;;15.70;1.00;;;;;;5052095;28;20079;-91
2022/04/17 10:21:34;;;;;;;4.53;3.70;;;16.00;1.00;;;;;;5052474;28;20025;-90
2022/04/17 10:24:02;;;;;;;4.10;3.80;;;16.10;1.00;;;;;;5049897;28;20029;-91
2022/04/17 10:26:31;;;;;;;4.00;3.70;;;16.40;1.00;;;;;;5054885;28;20032;-91
2022/04/17 10:29:01;;;;;;;3.90;3.60;;;16.70;1.00;;;;;;5053081;28;20114;-91
2022/04/17 10:31:40;;;;;;;4.72;4.32;;;17.20;1.00;;;;;;5053774;28;20468;-91
2022/04/17 10:34:32;;;;;;;4.40;4.07;;;18.00;1.00;;;;;;5053460;28;20052;-91
2022/04/17 10:37:17;;;;;;;4.97;4.35;;;18.30;1.00;;;;;;5053739;28;20509;-91
2022/04/17 10:39:49;;;;;;;4.63;4.22;;;19.10;1.00;;;;;;5053705;28;20025;-91
2022/04/17 10:42:15;;;;;;;4.65;4.25;;;20.00;1.00;;;;;;5052164;28;20025;-91
2022/04/17 10:44:41;;;;;;;9.27;8.38;;;20.60;1.00;;;;;;5051534;28;20022;-91
2022/04/17 10:47:20;;;;;;;14.77;13.20;;;20.80;1.00;;;;;;5053264;28;20029;-91
2022/04/17 10:50:00;;;;;;;5.03;4.63;;;20.90;1.00;;;;;;5053629;28;20025;-91
2022/04/17 10:52:33;;;;;;;4.97;4.45;;;21.00;1.00;;;;;;5053606;28;20037;-91
2022/04/17 10:55:10;;;;;;;4.40;4.00;;;21.20;1.00;;;;;;5053463;28;20032;-91
2022/04/17 10:57:44;;;;;;;3.88;3.58;;;21.80;1.00;;;;;;5052631;28;20021;-91
2022/04/17 11:00:28;;;;;;;4.30;3.90;;;22.30;1.00;;;;;;5049948;28;20449;-91
2022/04/17 11:02:58;;;;;;;4.70;4.40;;;22.10;1.00;;;;;;5048948;28;20091;-91
2022/04/17 11:08:28;;;;;;;4.72;4.38;;;22.60;1.00;;;;;;5063104;28;20051;-91
2022/04/17 11:11:00;;;;;;;4.90;4.50;;;23.40;1.00;;;;;;5056877;28;20079;-91
2022/04/17 11:13:26;;;;;;;4.75;4.40;;;23.70;1.00;;;;;;5057284;28;20029;-92
2022/04/17 11:15:56;;;;;;;4.93;4.53;;;23.70;1.00;;;;;;5057008;28;20041;-92
2022/04/17 11:18:28;;;;;;;5.20;4.57;;;23.90;1.00;;;;;;5056015;28;20442;-91
2022/04/17 11:20:55;;;;;;;5.18;4.78;;;24.10;1.00;;;;;;5052741;28;20112;-91
2022/04/17 11:23:59;;;;;;;4.22;3.83;;;23.60;1.00;;;;;;5057716;28;20104;-91
2022/04/17 11:26:52;;;;;;;4.47;4.07;;;23.60;1.00;;;;;;5065152;28;20079;-91
2022/04/17 11:29:47;;;;;;;4.20;3.90;;;24.20;1.00;;;;;;5058321;28;20498;-91
2022/04/17 11:32:19;;;;;;;4.45;4.15;;;24.50;1.00;;;;;;5056685;28;20532;-91
2022/04/17 11:34:52;;;;;;;4.47;4.07;;;24.40;1.00;;;;;;5056663;28;20417;-91
2022/04/17 11:37:25;;;;;;;4.50;4.10;;;25.30;1.00;;;;;;5055289;28;20114;-92
2022/04/17 11:39:53;;;;;;;6.05;3.55;;;25.10;1.00;;;;;;5055026;28;20123;-91
2022/04/17 11:42:19;;;;;;;4.43;4.03;;;25.80;1.00;;;;;;5055171;28;20036;-92
2022/04/17 11:44:48;;;;;;;3.92;3.63;;;26.00;1.00;;;;;;5053825;28;20052;-89
2022/04/17 11:47:14;;;;;;;4.70;4.00;;;25.40;1.00;;;;;;5058557;28;20039;-92
2022/04/17 11:49:41;;;;;;;4.10;3.70;;;25.70;1.00;;;;;;5061733;28;20044;-91
2022/04/17 11:52:10;;;;;;;4.07;3.78;;;26.20;1.00;;;;;;5062947;28;20533;-92
2022/04/17 11:54:35;;;;;;;6.25;3.50;;;25.70;1.00;;;;;;5056567;28;20029;-92
2022/04/17 11:57:01;;;;;;;4.28;3.97;;;25.70;1.00;;;;;;5052039;28;20022;-91
2022/04/17 11:59:27;;;;;;;4.20;3.80;;;26.70;1.00;;;;;;5057914;28;20559;-92
2022/04/17 12:02:09;;;;;;;4.00;3.70;;;26.80;1.00;;;;;;5054739;28;20058;-91
2022/04/17 12:04:35;;;;;;;3.90;3.45;;;27.30;1.00;;;;;;5056094;28;20029;-92
2022/04/17 12:07:01;;;;;;;3.92;3.63;;;27.00;1.00;;;;;;5056201;28;20527;-92
2022/04/17 12:09:27;;;;;;;4.00;3.70;;;26.80;1.00;;;;;;5055748;28;20119;-92
2022/04/17 12:11:53;;;;;;;3.70;3.40;;;26.80;1.00;;;;;;5051935;28;20025;-92
2022/04/17 12:14:28;;;;;;;4.32;3.55;;;27.20;1.00;;;;;;5057515;28;20029;-92
2022/04/17 12:16:54;;;;;;;3.60;3.33;;;28.00;1.00;;;;;;5056578;28;20041;-92
2022/04/17 12:19:20;;;;;;;3.88;3.58;;;28.30;1.00;;;;;;5053075;28;20029;-91
2022/04/17 12:21:46;;;;;;;3.72;3.35;;;28.50;99.90;;;;;;5055370;28;20032;-92
2022/04/17 12:24:12;;;;;;;3.83;3.50;;;28.50;99.90;;;;;;5053189;28;20128;-90
2022/04/17 12:26:37;;;;;;;3.90;3.60;;;29.60;99.90;;;;;;5054914;28;20020;-90
2022/04/17 12:29:05;;;;;;;3.70;3.40;;;29.30;99.90;;;;;;5056510;28;20025;-90
2022/04/17 12:31:31;;;;;;;3.28;3.08;;;30.00;99.90;;;;;;5055567;28;20037;-90
2022/04/17 12:34:22;;;;;;;3.83;3.13;;;30.80;99.90;;;;;;5055465;28;20119;-90
2022/04/17 12:36:48;;;;;;;3.28;2.97;;;30.40;99.90;;;;;;5055555;28;20024;-90
2022/04/17 12:39:14;;;;;;;3.80;3.50;;;29.80;99.90;;;;;;5053387;28;20028;-90
2022/04/17 12:41:46;;;;;;;4.03;3.72;;;29.50;99.90;;;;;;5053830;28;20051;-91
2022/04/17 12:44:12;;;;;;;4.05;3.58;;;29.40;99.90;;;;;;5055528;28;20100;-90
2022/04/17 12:46:42;;;;;;;3.78;3.47;;;28.10;99.90;;;;;;5055474;28;20108;-90
2022/04/17 12:49:12;;;;;;;4.28;3.97;;;27.60;99.90;;;;;;5055175;28;20029;-90
2022/04/17 12:51:39;;;;;;;3.42;3.22;;;27.70;99.90;;;;;;5055593;28;20020;-90
2022/04/17 12:54:12;;;;;;;3.78;3.47;;;27.50;99.90;;;;;;5050221;28;20079;-90
2022/04/17 12:56:38;;;;;;;3.85;3.55;;;27.40;99.90;;;;;;5053994;28;20374;-90
2022/04/17 12:59:04;;;;;;;3.50;3.20;;;28.00;99.90;;;;;;5054435;28;20025;-90
2022/04/17 13:01:34;;;;;;;3.60;3.40;;;27.90;99.90;;;;;;5055749;28;20033;-90
2022/04/17 13:04:08;;;;;;;3.75;3.40;;;28.00;99.90;;;;;;5055075;28;20056;-92
2022/04/17 13:06:34;;;;;;;3.72;3.42;;;28.00;99.90;;;;;;5054865;28;20040;-92
2022/04/17 13:09:12;;;;;;;3.83;3.47;;;27.70;99.90;;;;;;5050734;28;20029;-93
2022/04/17 13:11:49;;;;;;;3.55;3.25;;;27.90;99.90;;;;;;5053863;28;20028;-94
2022/04/17 13:14:14;;;;;;;4.05;3.65;;;27.40;99.90;;;;;;5055513;28;20445;-90
2022/04/17 13:16:56;;;;;;;3.60;3.30;;;27.20;99.90;;;;;;5054745;28;20035;-90